sensor_id;sensor_type;location;lat;lon;timestamp;P1;durP1;ratioP1;P2;durP2;ratioP2
18592;SDS011;9426;54.118;17.948;2023-10-19T00:05:40;19.80;;;6.83;;
18592;SDS011;9426;54.118;17.948;2023-10-19T00:11:06;16.30;;;5.90;;
18592;SDS011;9426;54.118;17.948;2023-10-19T00:16:30;13.10;;;5.37;;
18592;SDS011;9426;54.118;17.948;2023-10-19T00:21:57;11.17;;;4.80;;
18592;SDS011;9426;54.118;17.948;2023-10-19T00:27:31;11.17;;;4.93;;
18592;SDS011;9426;54.118;17.948;2023-10-19T00:32:55;12.03;;;4.70;;
18592;SDS011;9426;54.118;17.948;2023-10-19T00:38:25;7.80;;;4.07;;
18592;SDS011;9426;54.118;17.948;2023-10-19T00:44:04;7.43;;;3.83;;
18592;SDS011;9426;54.118;17.948;2023-10-19T00:49:32;9.53;;;4.20;;
18592;SDS011;9426;54.118;17.948;2023-10-19T00:54:56;15.40;;;5.37;;
18592;SDS011;9426;54.118;17.948;2023-10-19T01:00:23;14.00;;;5.93;;
18592;SDS011;9426;54.118;17.948;2023-10-19T01:05:55;11.67;;;5.10;;
18592;SDS011;9426;54.118;17.948;2023-10-19T01:11:19;14.20;;;5.87;;
18592;SDS011;9426;54.118;17.948;2023-10-19T01:16:45;12.53;;;5.63;;
18592;SDS011;9426;54.118;17.948;2023-10-19T01:22:11;11.80;;;6.23;;
18592;SDS011;9426;54.118;17.948;2023-10-19T01:27:39;11.40;;;5.30;;
18592;SDS011;9426;54.118;17.948;2023-10-19T01:33:03;10.30;;;5.13;;
18592;SDS011;9426;54.118;17.948;2023-10-19T01:38:34;8.77;;;4.70;;
18592;SDS011;9426;54.118;17.948;2023-10-19T01:43:59;12.30;;;4.90;;
18592;SDS011;9426;54.118;17.948;2023-10-19T01:49:27;9.70;;;5.40;;
18592;SDS011;9426;54.118;17.948;2023-10-19T01:54:52;14.57;;;5.20;;
18592;SDS011;9426;54.118;17.948;2023-10-19T02:00:22;11.43;;;4.80;;
18592;SDS011;9426;54.118;17.948;2023-10-19T02:05:46;10.47;;;4.93;;
18592;SDS011;9426;54.118;17.948;2023-10-19T02:11:11;9.57;;;4.90;;
18592;SDS011;9426;54.118;17.948;2023-10-19T02:16:41;10.23;;;4.53;;
18592;SDS011;9426;54.118;17.948;2023-10-19T02:22:05;9.93;;;4.63;;
18592;SDS011;9426;54.118;17.948;2023-10-19T02:27:29;8.70;;;4.40;;
18592;SDS011;9426;54.118;17.948;2023-10-19T02:32:56;9.90;;;4.50;;
18592;SDS011;9426;54.118;17.948;2023-10-19T02:38:20;10.50;;;5.10;;
18592;SDS011;9426;54.118;17.948;2023-10-19T02:43:45;10.97;;;4.97;;
18592;SDS011;9426;54.118;17.948;2023-10-19T02:49:13;10.90;;;4.63;;
18592;SDS011;9426;54.118;17.948;2023-10-19T02:54:41;10.63;;;4.63;;
18592;SDS011;9426;54.118;17.948;2023-10-19T03:00:05;11.40;;;5.10;;
18592;SDS011;9426;54.118;17.948;2023-10-19T03:05:36;28.87;;;9.70;;
18592;SDS011;9426;54.118;17.948;2023-10-19T03:11:03;22.27;;;10.20;;
18592;SDS011;9426;54.118;17.948;2023-10-19T03:16:29;18.77;;;9.57;;
18592;SDS011;9426;54.118;17.948;2023-10-19T03:21:54;39.33;;;19.20;;
18592;SDS011;9426;54.118;17.948;2023-10-19T03:27:21;101.03;;;48.23;;
18592;SDS011;9426;54.118;17.948;2023-10-19T03:32:44;50.60;;;29.67;;
18592;SDS011;9426;54.118;17.948;2023-10-19T03:38:10;21.80;;;11.80;;
18592;SDS011;9426;54.118;17.948;2023-10-19T03:43:38;17.13;;;8.93;;
18592;SDS011;9426;54.118;17.948;2023-10-19T03:49:02;17.80;;;7.10;;
18592;SDS011;9426;54.118;17.948;2023-10-19T03:54:35;13.83;;;5.90;;
18592;SDS011;9426;54.118;17.948;2023-10-19T04:00:02;11.57;;;5.90;;
18592;SDS011;9426;54.118;17.948;2023-10-19T04:05:32;15.07;;;6.30;;
18592;SDS011;9426;54.118;17.948;2023-10-19T04:11:01;15.27;;;9.20;;
18592;SDS011;9426;54.118;17.948;2023-10-19T04:16:33;15.73;;;7.93;;
18592;SDS011;9426;54.118;17.948;2023-10-19T04:21:58;13.37;;;7.63;;
18592;SDS011;9426;54.118;17.948;2023-10-19T04:27:24;15.50;;;9.30;;
18592;SDS011;9426;54.118;17.948;2023-10-19T04:32:48;25.50;;;12.87;;
18592;SDS011;9426;54.118;17.948;2023-10-19T04:38:13;19.60;;;10.93;;
18592;SDS011;9426;54.118;17.948;2023-10-19T04:43:40;18.80;;;8.60;;
18592;SDS011;9426;54.118;17.948;2023-10-19T04:49:11;15.17;;;7.23;;
18592;SDS011;9426;54.118;17.948;2023-10-19T04:54:34;13.20;;;7.53;;
18592;SDS011;9426;54.118;17.948;2023-10-19T05:00:00;14.60;;;8.10;;
18592;SDS011;9426;54.118;17.948;2023-10-19T05:05:24;21.50;;;10.33;;
18592;SDS011;9426;54.118;17.948;2023-10-19T05:10:48;29.70;;;12.20;;
18592;SDS011;9426;54.118;17.948;2023-10-19T05:16:13;30.40;;;13.50;;
18592;SDS011;9426;54.118;17.948;2023-10-19T05:21:36;27.03;;;12.83;;
18592;SDS011;9426;54.118;17.948;2023-10-19T05:27:00;17.50;;;8.77;;
18592;SDS011;9426;54.118;17.948;2023-10-19T05:32:25;21.80;;;9.57;;
18592;SDS011;9426;54.118;17.948;2023-10-19T05:37:51;21.37;;;9.43;;
18592;SDS011;9426;54.118;17.948;2023-10-19T05:43:17;21.30;;;9.97;;
18592;SDS011;9426;54.118;17.948;2023-10-19T05:48:42;23.83;;;11.07;;
18592;SDS011;9426;54.118;17.948;2023-10-19T05:54:06;22.57;;;11.13;;
18592;SDS011;9426;54.118;17.948;2023-10-19T05:59:30;28.17;;;12.70;;
18592;SDS011;9426;54.118;17.948;2023-10-19T06:04:56;39.03;;;16.87;;
18592;SDS011;9426;54.118;17.948;2023-10-19T06:10:20;47.90;;;21.40;;
18592;SDS011;9426;54.118;17.948;2023-10-19T06:15:44;45.53;;;25.37;;
18592;SDS011;9426;54.118;17.948;2023-10-19T06:21:10;40.63;;;20.27;;
18592;SDS011;9426;54.118;17.948;2023-10-19T06:26:34;34.90;;;17.43;;
18592;SDS011;9426;54.118;17.948;2023-10-19T06:31:57;31.77;;;16.80;;
18592;SDS011;9426;54.118;17.948;2023-10-19T06:37:23;30.60;;;15.00;;
18592;SDS011;9426;54.118;17.948;2023-10-19T06:42:47;26.13;;;12.77;;
18592;SDS011;9426;54.118;17.948;2023-10-19T06:48:11;21.00;;;11.60;;
18592;SDS011;9426;54.118;17.948;2023-10-19T06:53:37;21.03;;;9.53;;
18592;SDS011;9426;54.118;17.948;2023-10-19T06:59:01;26.93;;;10.10;;
18592;SDS011;9426;54.118;17.948;2023-10-19T07:04:27;22.37;;;11.23;;
18592;SDS011;9426;54.118;17.948;2023-10-19T07:09:52;39.93;;;19.13;;
18592;SDS011;9426;54.118;17.948;2023-10-19T07:15:16;47.67;;;19.40;;
18592;SDS011;9426;54.118;17.948;2023-10-19T07:20:40;39.47;;;17.03;;
18592;SDS011;9426;54.118;17.948;2023-10-19T07:26:05;22.17;;;12.07;;
18592;SDS011;9426;54.118;17.948;2023-10-19T07:31:29;39.03;;;18.37;;
18592;SDS011;9426;54.118;17.948;2023-10-19T07:36:54;34.33;;;15.97;;
18592;SDS011;9426;54.118;17.948;2023-10-19T07:42:21;48.97;;;20.83;;
18592;SDS011;9426;54.118;17.948;2023-10-19T07:47:45;35.30;;;18.07;;
18592;SDS011;9426;54.118;17.948;2023-10-19T07:53:09;41.53;;;21.10;;
18592;SDS011;9426;54.118;17.948;2023-10-19T07:58:34;29.37;;;15.47;;
18592;SDS011;9426;54.118;17.948;2023-10-19T08:03:57;26.53;;;14.37;;
18592;SDS011;9426;54.118;17.948;2023-10-19T08:09:21;57.23;;;30.67;;
18592;SDS011;9426;54.118;17.948;2023-10-19T08:14:46;20.43;;;12.70;;
18592;SDS011;9426;54.118;17.948;2023-10-19T08:20:11;20.60;;;13.00;;
18592;SDS011;9426;54.118;17.948;2023-10-19T08:25:44;22.37;;;13.40;;
18592;SDS011;9426;54.118;17.948;2023-10-19T08:31:16;29.80;;;18.17;;
18592;SDS011;9426;54.118;17.948;2023-10-19T08:36:41;43.67;;;23.87;;
18592;SDS011;9426;54.118;17.948;2023-10-19T08:42:05;24.87;;;13.83;;
18592;SDS011;9426;54.118;17.948;2023-10-19T08:47:30;23.37;;;11.87;;
18592;SDS011;9426;54.118;17.948;2023-10-19T08:52:55;40.13;;;17.83;;
18592;SDS011;9426;54.118;17.948;2023-10-19T08:58:19;19.67;;;10.37;;
18592;SDS011;9426;54.118;17.948;2023-10-19T09:03:45;42.53;;;18.63;;
18592;SDS011;9426;54.118;17.948;2023-10-19T09:09:08;33.73;;;16.03;;
18592;SDS011;9426;54.118;17.948;2023-10-19T09:14:37;13.80;;;8.20;;
18592;SDS011;9426;54.118;17.948;2023-10-19T09:20:06;22.60;;;9.97;;
18592;SDS011;9426;54.118;17.948;2023-10-19T09:25:31;13.63;;;7.23;;
18592;SDS011;9426;54.118;17.948;2023-10-19T09:30:56;21.87;;;11.30;;
18592;SDS011;9426;54.118;17.948;2023-10-19T09:36:21;48.40;;;18.37;;
18592;SDS011;9426;54.118;17.948;2023-10-19T09:41:47;50.77;;;23.97;;
18592;SDS011;9426;54.118;17.948;2023-10-19T09:47:11;20.27;;;10.27;;
18592;SDS011;9426;54.118;17.948;2023-10-19T09:52:37;13.13;;;8.00;;
18592;SDS011;9426;54.118;17.948;2023-10-19T09:58:02;23.90;;;11.07;;
18592;SDS011;9426;54.118;17.948;2023-10-19T10:03:41;40.50;;;18.83;;
18592;SDS011;9426;54.118;17.948;2023-10-19T10:09:08;28.17;;;13.70;;
18592;SDS011;9426;54.118;17.948;2023-10-19T10:14:33;20.17;;;12.47;;
18592;SDS011;9426;54.118;17.948;2023-10-19T10:25:38;34.77;;;16.23;;
18592;SDS011;9426;54.118;17.948;2023-10-19T10:31:09;36.33;;;17.40;;
18592;SDS011;9426;54.118;17.948;2023-10-19T10:36:56;22.30;;;10.60;;
18592;SDS011;9426;54.118;17.948;2023-10-19T10:42:22;104.63;;;31.80;;
18592;SDS011;9426;54.118;17.948;2023-10-19T10:47:48;20.93;;;9.77;;
18592;SDS011;9426;54.118;17.948;2023-10-19T10:53:12;18.27;;;8.33;;
18592;SDS011;9426;54.118;17.948;2023-10-19T10:58:37;22.93;;;10.17;;
18592;SDS011;9426;54.118;17.948;2023-10-19T11:04:08;23.17;;;10.47;;
18592;SDS011;9426;54.118;17.948;2023-10-19T11:09:43;16.37;;;6.37;;
18592;SDS011;9426;54.118;17.948;2023-10-19T11:15:09;19.57;;;7.47;;
18592;SDS011;9426;54.118;17.948;2023-10-19T11:20:32;11.67;;;5.17;;
18592;SDS011;9426;54.118;17.948;2023-10-19T11:25:57;17.37;;;7.80;;
18592;SDS011;9426;54.118;17.948;2023-10-19T11:31:25;19.77;;;7.43;;
18592;SDS011;9426;54.118;17.948;2023-10-19T11:36:52;7.30;;;3.60;;
18592;SDS011;9426;54.118;17.948;2023-10-19T11:42:17;15.33;;;5.43;;
18592;SDS011;9426;54.118;17.948;2023-10-19T11:47:43;11.30;;;4.90;;
18592;SDS011;9426;54.118;17.948;2023-10-19T11:53:06;8.07;;;4.20;;
18592;SDS011;9426;54.118;17.948;2023-10-19T11:58:31;18.90;;;6.30;;
18592;SDS011;9426;54.118;17.948;2023-10-19T12:03:57;24.40;;;8.50;;
18592;SDS011;9426;54.118;17.948;2023-10-19T12:09:21;11.80;;;5.07;;
18592;SDS011;9426;54.118;17.948;2023-10-19T12:14:46;10.53;;;4.53;;
18592;SDS011;9426;54.118;17.948;2023-10-19T12:20:12;29.10;;;11.00;;
18592;SDS011;9426;54.118;17.948;2023-10-19T12:25:36;43.87;;;19.77;;
18592;SDS011;9426;54.118;17.948;2023-10-19T12:31:10;64.33;;;31.47;;
18592;SDS011;9426;54.118;17.948;2023-10-19T12:36:35;10.43;;;5.57;;
18592;SDS011;9426;54.118;17.948;2023-10-19T12:41:59;6.20;;;3.50;;
18592;SDS011;9426;54.118;17.948;2023-10-19T12:47:24;13.00;;;5.57;;
18592;SDS011;9426;54.118;17.948;2023-10-19T12:52:50;12.60;;;5.27;;
18592;SDS011;9426;54.118;17.948;2023-10-19T12:58:13;10.87;;;5.87;;
18592;SDS011;9426;54.118;17.948;2023-10-19T13:03:40;19.80;;;9.00;;
18592;SDS011;9426;54.118;17.948;2023-10-19T13:09:08;10.43;;;5.33;;
18592;SDS011;9426;54.118;17.948;2023-10-19T13:14:31;12.83;;;5.03;;
18592;SDS011;9426;54.118;17.948;2023-10-19T13:19:55;5.73;;;3.30;;
18592;SDS011;9426;54.118;17.948;2023-10-19T13:25:24;24.23;;;11.10;;
18592;SDS011;9426;54.118;17.948;2023-10-19T13:31:00;9.03;;;4.67;;
18592;SDS011;9426;54.118;17.948;2023-10-19T13:36:24;8.87;;;4.50;;
18592;SDS011;9426;54.118;17.948;2023-10-19T13:41:49;9.27;;;4.37;;
18592;SDS011;9426;54.118;17.948;2023-10-19T13:47:13;7.03;;;4.70;;
18592;SDS011;9426;54.118;17.948;2023-10-19T13:52:38;16.33;;;6.70;;
18592;SDS011;9426;54.118;17.948;2023-10-19T13:58:03;13.83;;;5.53;;
18592;SDS011;9426;54.118;17.948;2023-10-19T14:03:27;11.73;;;5.03;;
18592;SDS011;9426;54.118;17.948;2023-10-19T14:08:52;13.70;;;5.97;;
18592;SDS011;9426;54.118;17.948;2023-10-19T14:14:17;19.10;;;7.10;;
18592;SDS011;9426;54.118;17.948;2023-10-19T14:19:41;12.37;;;5.87;;
18592;SDS011;9426;54.118;17.948;2023-10-19T14:25:06;9.30;;;5.10;;
18592;SDS011;9426;54.118;17.948;2023-10-19T14:30:34;18.10;;;6.70;;
18592;SDS011;9426;54.118;17.948;2023-10-19T14:35:58;15.20;;;5.97;;
18592;SDS011;9426;54.118;17.948;2023-10-19T14:41:22;10.07;;;5.50;;
18592;SDS011;9426;54.118;17.948;2023-10-19T14:46:48;13.00;;;6.57;;
18592;SDS011;9426;54.118;17.948;2023-10-19T14:52:13;11.87;;;6.40;;
18592;SDS011;9426;54.118;17.948;2023-10-19T14:57:37;14.33;;;7.83;;
18592;SDS011;9426;54.118;17.948;2023-10-19T15:03:02;9.90;;;5.20;;
18592;SDS011;9426;54.118;17.948;2023-10-19T15:08:29;9.63;;;5.60;;
18592;SDS011;9426;54.118;17.948;2023-10-19T15:13:54;9.73;;;5.63;;
18592;SDS011;9426;54.118;17.948;2023-10-19T15:19:25;14.13;;;6.27;;
18592;SDS011;9426;54.118;17.948;2023-10-19T15:24:50;14.37;;;6.47;;
18592;SDS011;9426;54.118;17.948;2023-10-19T15:30:13;16.37;;;7.60;;
18592;SDS011;9426;54.118;17.948;2023-10-19T15:35:40;15.20;;;7.50;;
18592;SDS011;9426;54.118;17.948;2023-10-19T15:41:04;11.20;;;6.23;;
18592;SDS011;9426;54.118;17.948;2023-10-19T15:46:28;29.53;;;12.67;;
18592;SDS011;9426;54.118;17.948;2023-10-19T15:51:56;19.90;;;9.03;;
18592;SDS011;9426;54.118;17.948;2023-10-19T15:57:20;32.40;;;11.80;;
18592;SDS011;9426;54.118;17.948;2023-10-19T16:02:44;38.00;;;13.53;;
18592;SDS011;9426;54.118;17.948;2023-10-19T16:08:09;20.37;;;8.47;;
18592;SDS011;9426;54.118;17.948;2023-10-19T16:13:34;12.33;;;5.73;;
18592;SDS011;9426;54.118;17.948;2023-10-19T16:18:58;10.40;;;5.33;;
18592;SDS011;9426;54.118;17.948;2023-10-19T16:24:23;12.60;;;5.30;;
18592;SDS011;9426;54.118;17.948;2023-10-19T16:29:47;10.33;;;5.17;;
18592;SDS011;9426;54.118;17.948;2023-10-19T16:35:11;12.07;;;5.90;;
18592;SDS011;9426;54.118;17.948;2023-10-19T16:40:36;18.07;;;7.40;;
18592;SDS011;9426;54.118;17.948;2023-10-19T16:46:00;11.27;;;6.03;;
18592;SDS011;9426;54.118;17.948;2023-10-19T16:51:23;16.13;;;5.90;;
18592;SDS011;9426;54.118;17.948;2023-10-19T16:56:48;9.67;;;5.47;;
18592;SDS011;9426;54.118;17.948;2023-10-19T17:02:12;11.43;;;5.40;;
18592;SDS011;9426;54.118;17.948;2023-10-19T17:07:36;11.47;;;5.37;;
18592;SDS011;9426;54.118;17.948;2023-10-19T17:18:50;10.10;;;5.63;;
18592;SDS011;9426;54.118;17.948;2023-10-19T17:24:13;10.50;;;5.10;;
18592;SDS011;9426;54.118;17.948;2023-10-19T17:29:37;8.87;;;4.67;;
18592;SDS011;9426;54.118;17.948;2023-10-19T17:35:01;11.87;;;5.17;;
18592;SDS011;9426;54.118;17.948;2023-10-19T17:40:51;15.93;;;5.27;;
18592;SDS011;9426;54.118;17.948;2023-10-19T17:52:31;10.90;;;5.53;;
18592;SDS011;9426;54.118;17.948;2023-10-19T17:57:54;14.13;;;4.77;;
18592;SDS011;9426;54.118;17.948;2023-10-19T18:03:18;13.60;;;4.70;;
18592;SDS011;9426;54.118;17.948;2023-10-19T18:08:47;9.77;;;4.63;;
18592;SDS011;9426;54.118;17.948;2023-10-19T18:14:10;10.67;;;5.07;;
18592;SDS011;9426;54.118;17.948;2023-10-19T18:19:35;10.37;;;4.60;;
18592;SDS011;9426;54.118;17.948;2023-10-19T18:24:59;8.90;;;4.43;;
18592;SDS011;9426;54.118;17.948;2023-10-19T18:30:27;10.00;;;4.47;;
18592;SDS011;9426;54.118;17.948;2023-10-19T18:35:56;9.10;;;4.83;;
18592;SDS011;9426;54.118;17.948;2023-10-19T18:41:22;10.87;;;4.90;;
18592;SDS011;9426;54.118;17.948;2023-10-19T18:46:47;9.40;;;4.73;;
18592;SDS011;9426;54.118;17.948;2023-10-19T18:52:11;17.77;;;4.77;;
18592;SDS011;9426;54.118;17.948;2023-10-19T18:57:36;7.73;;;4.40;;
18592;SDS011;9426;54.118;17.948;2023-10-19T19:02:59;8.40;;;5.03;;
18592;SDS011;9426;54.118;17.948;2023-10-19T19:08:23;10.33;;;4.40;;
18592;SDS011;9426;54.118;17.948;2023-10-19T19:13:49;10.97;;;5.60;;
18592;SDS011;9426;54.118;17.948;2023-10-19T19:19:12;7.90;;;4.37;;
18592;SDS011;9426;54.118;17.948;2023-10-19T19:24:38;10.00;;;5.43;;
18592;SDS011;9426;54.118;17.948;2023-10-19T19:30:27;12.17;;;5.57;;
18592;SDS011;9426;54.118;17.948;2023-10-19T19:36:15;11.17;;;5.43;;
18592;SDS011;9426;54.118;17.948;2023-10-19T19:41:43;10.10;;;4.53;;
18592;SDS011;9426;54.118;17.948;2023-10-19T19:53:45;11.50;;;5.03;;
18592;SDS011;9426;54.118;17.948;2023-10-19T19:59:11;8.10;;;4.40;;
18592;SDS011;9426;54.118;17.948;2023-10-19T20:04:34;10.97;;;5.10;;
18592;SDS011;9426;54.118;17.948;2023-10-19T20:10:00;18.50;;;7.07;;
18592;SDS011;9426;54.118;17.948;2023-10-19T20:15:25;23.47;;;8.03;;
18592;SDS011;9426;54.118;17.948;2023-10-19T20:20:52;11.17;;;5.17;;
18592;SDS011;9426;54.118;17.948;2023-10-19T20:27:30;12.20;;;5.87;;
18592;SDS011;9426;54.118;17.948;2023-10-19T20:32:54;16.00;;;7.37;;
18592;SDS011;9426;54.118;17.948;2023-10-19T20:38:18;14.03;;;5.23;;
18592;SDS011;9426;54.118;17.948;2023-10-19T20:43:43;72.30;;;34.97;;
18592;SDS011;9426;54.118;17.948;2023-10-19T20:49:07;53.60;;;32.20;;
18592;SDS011;9426;54.118;17.948;2023-10-19T20:54:31;95.20;;;57.07;;
18592;SDS011;9426;54.118;17.948;2023-10-19T20:59:56;36.77;;;16.20;;
18592;SDS011;9426;54.118;17.948;2023-10-19T21:05:20;34.57;;;15.00;;
18592;SDS011;9426;54.118;17.948;2023-10-19T21:10:46;32.57;;;14.73;;
18592;SDS011;9426;54.118;17.948;2023-10-19T21:16:11;11.13;;;6.10;;
18592;SDS011;9426;54.118;17.948;2023-10-19T21:21:35;13.27;;;6.73;;
18592;SDS011;9426;54.118;17.948;2023-10-19T21:26:58;11.00;;;5.60;;
18592;SDS011;9426;54.118;17.948;2023-10-19T21:32:24;14.97;;;7.37;;
18592;SDS011;9426;54.118;17.948;2023-10-19T21:37:47;9.43;;;4.80;;
18592;SDS011;9426;54.118;17.948;2023-10-19T21:43:12;10.77;;;4.90;;
18592;SDS011;9426;54.118;17.948;2023-10-19T21:48:37;11.67;;;6.37;;
18592;SDS011;9426;54.118;17.948;2023-10-19T21:54:01;10.63;;;5.90;;
18592;SDS011;9426;54.118;17.948;2023-10-19T21:59:26;9.27;;;4.53;;
18592;SDS011;9426;54.118;17.948;2023-10-19T22:04:51;8.50;;;4.97;;
18592;SDS011;9426;54.118;17.948;2023-10-19T22:10:16;8.33;;;4.63;;
18592;SDS011;9426;54.118;17.948;2023-10-19T22:15:40;16.93;;;6.83;;
18592;SDS011;9426;54.118;17.948;2023-10-19T22:21:06;11.53;;;6.63;;
18592;SDS011;9426;54.118;17.948;2023-10-19T22:26:29;14.20;;;8.07;;
18592;SDS011;9426;54.118;17.948;2023-10-19T22:31:52;15.63;;;8.07;;
18592;SDS011;9426;54.118;17.948;2023-10-19T22:37:18;8.43;;;5.07;;
18592;SDS011;9426;54.118;17.948;2023-10-19T22:42:41;11.67;;;6.67;;
18592;SDS011;9426;54.118;17.948;2023-10-19T22:48:06;10.77;;;5.80;;
18592;SDS011;9426;54.118;17.948;2023-10-19T22:53:34;9.03;;;5.23;;
18592;SDS011;9426;54.118;17.948;2023-10-19T22:59:03;12.97;;;7.20;;
18592;SDS011;9426;54.118;17.948;2023-10-19T23:04:26;9.57;;;6.07;;
18592;SDS011;9426;54.118;17.948;2023-10-19T23:09:52;15.40;;;7.20;;
18592;SDS011;9426;54.118;17.948;2023-10-19T23:15:16;13.33;;;7.20;;
18592;SDS011;9426;54.118;17.948;2023-10-19T23:20:40;16.67;;;7.73;;
18592;SDS011;9426;54.118;17.948;2023-10-19T23:26:12;9.30;;;5.50;;
18592;SDS011;9426;54.118;17.948;2023-10-19T23:31:42;22.37;;;10.00;;
18592;SDS011;9426;54.118;17.948;2023-10-19T23:37:05;19.07;;;9.30;;
18592;SDS011;9426;54.118;17.948;2023-10-19T23:42:35;13.73;;;7.10;;
18592;SDS011;9426;54.118;17.948;2023-10-19T23:47:59;21.77;;;9.73;;
18592;SDS011;9426;54.118;17.948;2023-10-19T23:53:22;20.37;;;9.00;;
18592;SDS011;9426;54.118;17.948;2023-10-19T23:58:48;14.47;;;6.90;;
